createdAt,value
2023-11-09T00:01:10.443Z,6.86
2023-11-09T00:03:55.993Z,6.85
2023-11-09T00:06:40.900Z,6.81
2023-11-09T00:09:28.532Z,6.79
2023-11-09T00:12:13.655Z,6.79
2023-11-09T00:14:58.497Z,6.78
2023-11-09T00:17:43.426Z,6.75
2023-11-09T00:20:28.363Z,6.76
2023-11-09T00:23:13.346Z,6.76
2023-11-09T00:25:59.817Z,6.74
2023-11-09T00:28:44.816Z,6.72
2023-11-09T00:31:29.798Z,6.70
2023-11-09T00:34:15.952Z,6.70
2023-11-09T00:37:03.860Z,6.63
2023-11-09T00:39:49.023Z,6.57
2023-11-09T00:42:34.107Z,6.55
2023-11-09T00:45:19.445Z,6.51
2023-11-09T00:48:04.938Z,6.52
2023-11-09T00:50:50.231Z,6.53
2023-11-09T00:53:36.275Z,6.51
2023-11-09T00:56:21.067Z,6.49
2023-11-09T00:59:07.216Z,6.46
2023-11-09T01:01:52.392Z,6.44
2023-11-09T01:04:37.465Z,6.42
2023-11-09T01:07:22.963Z,6.41
2023-11-09T01:10:08.344Z,6.42
2023-11-09T01:12:53.668Z,6.42
2023-11-09T01:15:38.871Z,6.38
2023-11-09T01:18:25.330Z,6.35
2023-11-09T01:21:10.569Z,6.32
2023-11-09T01:23:55.926Z,6.32
2023-11-09T01:26:41.153Z,6.29
2023-11-09T01:29:26.369Z,6.28
2023-11-09T01:32:11.396Z,6.31
2023-11-09T01:34:56.244Z,6.31
2023-11-09T01:37:41.239Z,6.30
2023-11-09T01:40:27.461Z,6.29
2023-11-09T01:43:13.028Z,6.29
2023-11-09T01:45:58.047Z,6.26
2023-11-09T01:48:43.247Z,6.24
2023-11-09T01:51:28.965Z,6.21
2023-11-09T01:54:14.270Z,6.19
2023-11-09T01:56:59.966Z,6.19
2023-11-09T01:59:46.269Z,6.17
2023-11-09T02:02:31.333Z,6.19
2023-11-09T02:05:16.786Z,6.18
2023-11-09T02:08:02.221Z,6.15
2023-11-09T02:10:47.564Z,6.14
2023-11-09T02:13:33.982Z,6.13
2023-11-09T02:16:19.003Z,6.10
2023-11-09T02:19:04.751Z,6.06
2023-11-09T02:21:53.368Z,6.06
2023-11-09T02:24:38.314Z,6.07
2023-11-09T02:27:23.303Z,6.06
2023-11-09T02:30:08.371Z,6.07
2023-11-09T02:32:53.704Z,6.02
2023-11-09T02:35:39.163Z,5.97
2023-11-09T02:38:23.982Z,5.96
2023-11-09T02:41:09.540Z,5.97
2023-11-09T02:43:54.646Z,5.95
2023-11-09T02:46:39.662Z,5.95
2023-11-09T02:49:24.640Z,5.97
2023-11-09T02:52:09.598Z,5.98
2023-11-09T02:54:56.400Z,5.98
2023-11-09T02:57:41.554Z,5.99
2023-11-09T03:00:27.459Z,5.94
2023-11-09T03:03:13.087Z,5.90
2023-11-09T03:05:58.450Z,5.86
2023-11-09T03:08:43.729Z,5.82
2023-11-09T03:11:28.692Z,5.81
2023-11-09T03:14:14.377Z,5.78
2023-11-09T03:17:00.398Z,5.79
2023-11-09T03:19:45.608Z,5.82
2023-11-09T03:22:31.295Z,5.86
2023-11-09T03:25:16.514Z,5.84
2023-11-09T03:28:01.455Z,5.85
2023-11-09T03:30:46.421Z,5.81
2023-11-09T03:33:32.846Z,5.78
2023-11-09T03:36:18.634Z,5.83
2023-11-09T03:39:04.354Z,5.87
2023-11-09T03:41:49.732Z,5.93
2023-11-09T03:44:36.437Z,5.94
2023-11-09T03:47:24.647Z,6.00
2023-11-09T03:50:12.716Z,6.03
2023-11-09T03:52:57.878Z,6.02
2023-11-09T03:55:42.757Z,6.04
2023-11-09T03:58:27.800Z,6.07
2023-11-09T04:01:12.733Z,6.06
2023-11-09T04:03:57.648Z,6.09
2023-11-09T04:06:42.668Z,6.10
2023-11-09T04:09:28.068Z,6.08
2023-11-09T04:12:13.585Z,6.08
2023-11-09T04:14:59.939Z,6.10
2023-11-09T04:17:45.051Z,6.14
2023-11-09T04:20:29.878Z,6.13
2023-11-09T04:23:14.847Z,6.18
2023-11-09T04:25:59.662Z,6.21
2023-11-09T04:28:44.896Z,6.21
2023-11-09T04:31:32.340Z,6.17
2023-11-09T04:34:17.588Z,6.17
2023-11-09T04:37:03.015Z,6.20
2023-11-09T04:39:51.826Z,6.19
2023-11-09T04:42:37.014Z,6.22
2023-11-09T04:45:22.455Z,6.25
2023-11-09T04:48:09.604Z,6.22
2023-11-09T04:51:01.243Z,6.26
2023-11-09T04:53:46.466Z,6.29
2023-11-09T04:56:43.981Z,6.31
2023-11-09T04:59:29.322Z,6.32
2023-11-09T05:02:33.132Z,6.30
2023-11-09T05:05:37.317Z,6.32
2023-11-09T05:08:22.572Z,6.29
2023-11-09T05:11:07.877Z,6.33
2023-11-09T05:14:03.385Z,6.38
2023-11-09T05:16:49.844Z,6.35
2023-11-09T05:19:34.952Z,6.31
2023-11-09T05:22:20.123Z,6.34
2023-11-09T05:25:05.475Z,6.36
2023-11-09T05:27:50.683Z,6.36
2023-11-09T05:30:35.800Z,6.33
2023-11-09T05:33:21.305Z,6.33
2023-11-09T05:36:09.543Z,6.36
2023-11-09T05:38:56.661Z,6.35
2023-11-09T05:41:44.869Z,6.34
2023-11-09T05:44:30.881Z,6.36
2023-11-09T05:47:16.004Z,6.39
2023-11-09T05:50:00.897Z,6.35
2023-11-09T05:52:46.090Z,6.37
2023-11-09T05:55:31.867Z,6.37
2023-11-09T05:58:17.958Z,6.42
2023-11-09T06:01:03.097Z,6.42
2023-11-09T06:03:48.197Z,6.39
2023-11-09T06:06:33.186Z,6.42
2023-11-09T06:09:18.328Z,6.45
2023-11-09T06:12:03.398Z,6.46
2023-11-09T06:14:55.766Z,6.45
2023-11-09T06:17:41.181Z,6.48
2023-11-09T06:20:27.400Z,6.49
2023-11-09T06:23:12.261Z,6.52
2023-11-09T06:25:57.935Z,6.51
2023-11-09T06:28:43.244Z,6.53
2023-11-09T06:31:28.472Z,6.54
2023-11-09T06:34:16.492Z,6.52
2023-11-09T06:37:01.735Z,6.55
2023-11-09T06:39:50.068Z,6.48
2023-11-09T06:42:35.250Z,6.44
2023-11-09T06:45:20.148Z,6.42
2023-11-09T06:48:05.318Z,6.38
2023-11-09T06:50:50.057Z,6.37
2023-11-09T06:53:35.535Z,6.43
2023-11-09T06:56:20.594Z,6.46
2023-11-09T06:59:05.508Z,6.38
2023-11-09T07:01:50.447Z,6.31
2023-11-09T07:04:35.614Z,6.28
2023-11-09T07:07:20.932Z,6.23
2023-11-09T07:10:09.401Z,6.09
2023-11-09T07:12:54.805Z,6.05
2023-11-09T07:15:40.829Z,6.09
2023-11-09T07:18:26.318Z,6.14
2023-11-09T07:21:12.475Z,6.18
2023-11-09T07:24:02.755Z,6.18
2023-11-09T07:26:47.805Z,6.14
2023-11-09T07:29:34.036Z,6.07
2023-11-09T07:32:19.365Z,6.03
2023-11-09T07:35:04.254Z,6.04
2023-11-09T07:37:49.245Z,6.01
2023-11-09T07:40:34.765Z,6.19
2023-11-09T07:43:20.229Z,6.37
2023-11-09T07:46:05.391Z,6.07
2023-11-09T07:48:50.398Z,5.94
2023-11-09T07:51:35.719Z,5.97
2023-11-09T07:54:22.632Z,5.96
2023-11-09T07:57:07.843Z,5.94
2023-11-09T07:59:53.114Z,5.90
2023-11-09T08:02:38.644Z,5.82
2023-11-09T08:05:26.057Z,5.85
2023-11-09T08:08:11.725Z,5.83
2023-11-09T08:10:56.578Z,5.84
2023-11-09T08:13:41.509Z,5.91
2023-11-09T08:16:26.452Z,5.96
2023-11-09T08:19:11.683Z,5.98
2023-11-09T08:21:57.661Z,6.02
2023-11-09T08:24:45.121Z,6.07
2023-11-09T08:27:31.788Z,6.09
2023-11-09T08:30:17.310Z,6.05
2023-11-09T08:33:05.440Z,6.11
2023-11-09T08:35:52.455Z,6.11
2023-11-09T08:38:38.090Z,6.13
2023-11-09T08:41:23.113Z,6.18
2023-11-09T08:44:08.197Z,6.35
2023-11-09T08:46:53.185Z,6.55
2023-11-09T08:49:39.160Z,6.83
2023-11-09T08:52:24.683Z,7.02
2023-11-09T08:55:10.456Z,7.14
2023-11-09T08:57:56.051Z,7.20
2023-11-09T09:00:41.028Z,7.23
2023-11-09T09:03:26.046Z,7.27
2023-11-09T09:06:12.862Z,7.33
2023-11-09T09:08:58.024Z,7.37
2023-11-09T09:11:44.937Z,7.41
2023-11-09T09:14:29.826Z,7.45
2023-11-09T09:17:16.938Z,7.44
2023-11-09T09:20:02.146Z,7.46
2023-11-09T09:22:49.785Z,7.47
2023-11-09T09:25:34.964Z,7.57
2023-11-09T09:28:20.333Z,7.62
2023-11-09T09:31:06.036Z,7.66
2023-11-09T09:34:03.273Z,7.69
2023-11-09T09:36:49.022Z,7.77
2023-11-09T09:39:34.103Z,7.87
2023-11-09T09:42:19.054Z,7.92
2023-11-09T09:45:04.962Z,7.98
2023-11-09T09:47:51.151Z,8.03
2023-11-09T09:50:38.659Z,8.03
2023-11-09T09:53:25.874Z,8.07
2023-11-09T09:56:11.321Z,8.12
2023-11-09T09:58:57.497Z,8.18
2023-11-09T10:01:48.800Z,8.17
2023-11-09T10:04:34.636Z,8.28
2023-11-09T10:07:19.730Z,8.46
2023-11-09T10:10:04.932Z,8.60
2023-11-09T10:12:50.143Z,8.70
2023-11-09T10:15:35.381Z,8.74
2023-11-09T10:18:21.868Z,8.76
2023-11-09T10:21:08.214Z,8.70
2023-11-09T10:23:54.427Z,8.68
2023-11-09T10:26:41.531Z,8.69
2023-11-09T10:29:28.720Z,8.73
2023-11-09T10:32:20.589Z,8.72
2023-11-09T10:35:06.477Z,8.71
2023-11-09T10:37:52.127Z,8.75
2023-11-09T10:40:37.355Z,8.74
2023-11-09T10:43:24.129Z,8.72
2023-11-09T10:46:10.720Z,8.70
2023-11-09T10:48:58.732Z,8.78
2023-11-09T10:51:45.514Z,8.80
2023-11-09T10:54:31.263Z,8.82
2023-11-09T10:57:16.724Z,8.83
2023-11-09T11:00:02.496Z,8.84
2023-11-09T11:02:51.479Z,8.87
2023-11-09T11:05:41.607Z,8.88
2023-11-09T11:08:27.641Z,8.85
2023-11-09T11:11:17.410Z,8.83
2023-11-09T11:14:05.280Z,8.83
2023-11-09T11:16:53.405Z,8.84
2023-11-09T11:19:50.491Z,8.84
2023-11-09T11:22:42.121Z,8.88
2023-11-09T11:25:37.052Z,8.92
2023-11-09T11:28:27.506Z,8.93
2023-11-09T11:31:15.458Z,8.93
2023-11-09T11:34:01.489Z,8.90
2023-11-09T11:36:48.886Z,8.90
2023-11-09T11:39:37.754Z,8.92
2023-11-09T11:42:24.517Z,8.90
2023-11-09T11:45:09.929Z,8.86
2023-11-09T11:48:01.368Z,8.88
2023-11-09T11:50:47.260Z,8.93
2023-11-09T11:53:32.691Z,8.96
2023-11-09T11:56:32.196Z,8.93
2023-11-09T11:59:17.550Z,8.97
2023-11-09T12:02:03.410Z,8.99
2023-11-09T12:04:55.212Z,8.98
2023-11-09T12:07:43.334Z,9.08
2023-11-09T12:10:29.102Z,9.13
2023-11-09T12:13:15.818Z,9.20
2023-11-09T12:16:01.977Z,9.37
2023-11-09T12:18:51.068Z,9.67
2023-11-09T12:21:37.831Z,9.82
2023-11-09T12:24:24.898Z,9.67
2023-11-09T12:27:11.946Z,9.57
2023-11-09T12:29:59.344Z,9.71
2023-11-09T12:32:44.315Z,9.70
2023-11-09T12:35:30.032Z,9.78
2023-11-09T12:38:17.030Z,9.77
2023-11-09T12:41:03.712Z,9.77
2023-11-09T12:43:49.670Z,9.72
2023-11-09T12:46:37.418Z,9.69
2023-11-09T12:49:23.299Z,9.61
2023-11-09T12:52:09.101Z,9.60
2023-11-09T12:54:54.605Z,9.56
2023-11-09T12:57:42.886Z,9.50
2023-11-09T13:00:31.168Z,9.56
2023-11-09T13:03:22.205Z,9.53
2023-11-09T13:06:13.919Z,9.54
2023-11-09T13:09:34.817Z,9.44
2023-11-09T13:12:33.571Z,9.50
2023-11-09T13:15:30.953Z,9.55
2023-11-09T13:18:17.693Z,9.61
2023-11-09T13:21:02.856Z,9.77
2023-11-09T13:23:48.373Z,9.87
2023-11-09T13:26:35.942Z,9.91
2023-11-09T13:29:24.010Z,10.10
2023-11-09T13:32:08.884Z,10.13
2023-11-09T13:35:19.888Z,10.25
2023-11-09T13:38:09.279Z,10.26
2023-11-09T13:41:06.756Z,10.27
2023-11-09T13:43:58.226Z,10.33
2023-11-09T13:46:44.696Z,10.32
2023-11-09T13:49:30.923Z,10.32
2023-11-09T13:52:32.599Z,10.32
2023-11-09T13:55:37.094Z,10.32
2023-11-09T13:58:26.563Z,10.42
2023-11-09T14:01:12.001Z,10.39
2023-11-09T14:03:57.004Z,10.37
2023-11-09T14:06:46.479Z,10.30
2023-11-09T14:09:42.350Z,10.14
2023-11-09T14:12:50.720Z,10.10
2023-11-09T14:15:43.019Z,10.11
2023-11-09T14:18:31.308Z,10.06
2023-11-09T14:21:18.720Z,10.03
2023-11-09T14:24:08.284Z,10.06
2023-11-09T14:26:55.398Z,10.12
2023-11-09T14:29:47.939Z,10.13
2023-11-09T14:32:34.795Z,10.08
2023-11-09T14:35:19.773Z,10.05
2023-11-09T14:38:08.882Z,10.03
2023-11-09T14:40:55.443Z,9.99
2023-11-09T14:43:40.693Z,9.98
2023-11-09T14:46:27.129Z,9.93
2023-11-09T14:49:14.576Z,9.91
2023-11-09T14:52:07.671Z,9.85
2023-11-09T14:54:53.436Z,9.79
2023-11-09T14:57:38.412Z,9.72
2023-11-09T15:00:24.559Z,9.67
2023-11-09T15:03:19.673Z,9.65
2023-11-09T15:06:12.131Z,9.60
2023-11-09T15:09:10.576Z,9.55
2023-11-09T15:11:55.987Z,9.50
2023-11-09T15:14:41.063Z,9.44
2023-11-09T15:17:26.581Z,9.38
2023-11-09T15:20:23.778Z,9.31
2023-11-09T15:23:09.004Z,9.24
2023-11-09T15:25:54.522Z,9.22
2023-11-09T15:28:39.911Z,9.19
2023-11-09T15:31:25.142Z,9.07
2023-11-09T15:34:13.824Z,9.00
2023-11-09T15:36:58.895Z,8.97
2023-11-09T15:40:12.378Z,8.90
2023-11-09T15:42:54.346Z,8.84
2023-11-09T15:45:40.234Z,8.77
2023-11-09T15:48:25.502Z,8.75
2023-11-09T15:51:10.820Z,8.70
2023-11-09T15:53:56.022Z,8.65
2023-11-09T15:56:41.046Z,8.62
2023-11-09T15:59:29.774Z,8.57
2023-11-09T16:02:15.747Z,8.51
2023-11-09T16:05:01.352Z,8.45
2023-11-09T16:07:50.712Z,8.41
2023-11-09T16:10:37.224Z,8.36
2023-11-09T16:13:22.676Z,8.36
2023-11-09T16:16:07.539Z,8.31
2023-11-09T16:18:52.768Z,8.30
2023-11-09T16:21:38.970Z,8.24
2023-11-09T16:24:26.628Z,8.22
2023-11-09T16:27:15.822Z,8.22
2023-11-09T16:30:01.193Z,8.18
2023-11-09T16:32:46.632Z,8.13
2023-11-09T16:35:31.715Z,8.10
2023-11-09T16:38:16.958Z,8.04
2023-11-09T16:41:02.407Z,8.08
2023-11-09T16:43:47.382Z,8.04
2023-11-09T16:46:32.738Z,8.04
2023-11-09T16:49:20.557Z,8.04
2023-11-09T16:52:09.712Z,8.01
2023-11-09T16:54:54.856Z,7.99
2023-11-09T16:57:44.160Z,8.00
2023-11-09T17:00:29.316Z,7.96
2023-11-09T17:03:14.643Z,7.97
2023-11-09T17:05:59.723Z,7.96
2023-11-09T17:08:44.718Z,7.95
2023-11-09T17:11:29.788Z,8.02
2023-11-09T17:14:14.785Z,8.11
2023-11-09T17:17:00.718Z,8.05
2023-11-09T17:19:46.041Z,7.98
2023-11-09T17:22:31.089Z,7.94
2023-11-09T17:25:16.253Z,7.85
2023-11-09T17:28:04.534Z,7.78
2023-11-09T17:30:49.620Z,7.76
2023-11-09T17:33:34.688Z,7.74
2023-11-09T17:36:19.443Z,7.77
2023-11-09T17:39:04.408Z,7.75
2023-11-09T17:41:50.449Z,7.74
2023-11-09T17:44:35.684Z,7.73
2023-11-09T17:47:21.170Z,7.71
2023-11-09T17:50:09.776Z,7.73
2023-11-09T17:53:02.177Z,7.69
2023-11-09T17:55:47.801Z,7.71
2023-11-09T17:58:32.746Z,7.73
2023-11-09T18:01:18.416Z,7.72
2023-11-09T18:04:03.681Z,7.70
2023-11-09T18:06:48.548Z,7.69
2023-11-09T18:09:34.678Z,7.69
2023-11-09T18:12:19.769Z,7.67
2023-11-09T18:15:06.345Z,7.66
2023-11-09T18:17:53.002Z,7.65
2023-11-09T18:20:38.631Z,7.62
2023-11-09T18:23:24.094Z,7.62
2023-11-09T18:26:11.921Z,7.64
2023-11-09T18:28:56.817Z,7.62
2023-11-09T18:31:41.803Z,7.62
2023-11-09T18:34:29.483Z,7.55
2023-11-09T18:37:16.151Z,7.61
2023-11-09T18:40:01.297Z,7.57
2023-11-09T18:42:47.446Z,7.54
2023-11-09T18:45:32.274Z,7.50
2023-11-09T18:48:18.389Z,7.52
2023-11-09T18:53:51.196Z,7.48
2023-11-09T18:56:37.414Z,7.45
2023-11-09T18:59:22.354Z,7.42
2023-11-09T19:02:07.964Z,7.40
2023-11-09T19:04:53.561Z,7.41
2023-11-09T19:07:39.414Z,7.41
2023-11-09T19:10:24.826Z,7.37
2023-11-09T19:13:10.036Z,7.36
2023-11-09T19:15:55.400Z,7.33
2023-11-09T19:18:40.298Z,7.30
2023-11-09T19:24:13.309Z,7.32
2023-11-09T19:26:59.581Z,7.27
2023-11-09T19:29:44.748Z,7.23
2023-11-09T19:32:29.810Z,7.19
2023-11-09T19:35:14.917Z,7.13
2023-11-09T19:37:59.830Z,7.08
2023-11-09T19:40:45.936Z,7.05
2023-11-09T19:43:30.957Z,7.07
2023-11-09T19:46:15.840Z,7.12
2023-11-09T19:49:00.848Z,7.13
2023-11-09T19:51:46.700Z,7.18
2023-11-09T19:54:31.695Z,7.19
2023-11-09T19:57:17.222Z,7.17
2023-11-09T20:00:02.571Z,7.17
2023-11-09T20:02:47.877Z,7.14
2023-11-09T20:05:34.364Z,7.15
2023-11-09T20:08:19.948Z,7.11
2023-11-09T20:11:05.639Z,7.24
2023-11-09T20:13:50.650Z,7.15
2023-11-09T20:16:37.269Z,7.13
2023-11-09T20:19:22.568Z,7.10
2023-11-09T20:22:07.713Z,7.10
2023-11-09T20:24:52.702Z,7.09
2023-11-09T20:27:38.442Z,7.06
2023-11-09T20:30:23.951Z,7.05
2023-11-09T20:33:08.799Z,7.03
2023-11-09T20:35:54.370Z,7.04
2023-11-09T20:38:39.619Z,7.01
2023-11-09T20:41:24.529Z,7.00
2023-11-09T20:44:10.049Z,6.99
2023-11-09T20:46:57.144Z,6.96
2023-11-09T20:49:42.646Z,6.95
2023-11-09T20:52:27.657Z,6.94
2023-11-09T20:55:19.301Z,6.94
2023-11-09T20:58:06.365Z,6.90
2023-11-09T21:00:52.705Z,6.88
2023-11-09T21:03:41.033Z,6.88
2023-11-09T21:06:26.214Z,6.89
2023-11-09T21:09:11.482Z,6.82
2023-11-09T21:11:57.475Z,6.81
2023-11-09T21:14:42.673Z,6.81
2023-11-09T21:17:28.694Z,6.78
2023-11-09T21:20:17.528Z,6.76
2023-11-09T21:23:03.740Z,6.74
2023-11-09T21:25:50.766Z,6.74
2023-11-09T21:28:36.034Z,6.68
2023-11-09T21:31:21.180Z,6.67
2023-11-09T21:34:06.441Z,6.69
2023-11-09T21:36:51.748Z,6.66
2023-11-09T21:39:41.040Z,6.66
2023-11-09T21:42:26.236Z,6.65
2023-11-09T21:45:14.269Z,6.62
2023-11-09T21:47:59.637Z,6.57
2023-11-09T21:50:46.240Z,6.55
2023-11-09T21:53:31.460Z,6.56
2023-11-09T21:56:16.655Z,6.56
2023-11-09T21:59:01.540Z,6.53
2023-11-09T22:01:46.535Z,6.51
2023-11-09T22:04:32.306Z,6.53
2023-11-09T22:07:17.520Z,6.49
2023-11-09T22:10:03.009Z,6.46
2023-11-09T22:12:48.340Z,6.43
2023-11-09T22:15:33.577Z,6.43
2023-11-09T22:18:18.595Z,6.41
2023-11-09T22:21:03.522Z,6.43
2023-11-09T22:23:55.269Z,6.38
2023-11-09T22:26:40.385Z,6.38
2023-11-09T22:29:25.611Z,6.36
2023-11-09T22:32:10.569Z,6.37
2023-11-09T22:34:55.376Z,6.38
2023-11-09T22:37:40.283Z,6.36
2023-11-09T22:40:27.497Z,6.38
2023-11-09T22:43:14.284Z,6.38
2023-11-09T22:46:00.710Z,6.39
2023-11-09T22:48:46.068Z,6.42
2023-11-09T22:51:31.066Z,6.38
2023-11-09T22:54:16.026Z,6.41
2023-11-09T22:57:01.585Z,6.43
2023-11-09T22:59:46.423Z,6.47
2023-11-09T23:02:31.375Z,6.48
2023-11-09T23:05:16.560Z,6.47
2023-11-09T23:08:01.697Z,6.47
2023-11-09T23:10:47.581Z,6.44
2023-11-09T23:13:32.842Z,6.43
2023-11-09T23:16:22.701Z,6.40
2023-11-09T23:19:09.318Z,6.42
2023-11-09T23:21:55.992Z,6.39
2023-11-09T23:24:41.637Z,6.37
2023-11-09T23:27:26.649Z,6.37
2023-11-09T23:30:13.807Z,6.38
2023-11-09T23:32:59.085Z,6.35
2023-11-09T23:35:44.109Z,6.33
2023-11-09T23:38:30.205Z,6.30
2023-11-09T23:41:16.985Z,6.30
2023-11-09T23:44:01.882Z,6.32
2023-11-09T23:46:47.050Z,6.30
2023-11-09T23:49:32.238Z,6.30
2023-11-09T23:52:18.492Z,6.30
2023-11-09T23:55:04.515Z,6.36
2023-11-09T23:57:49.717Z,6.38
